ΕΜΥ, Εθνική Μετεωρολογική Υπηρεσία - Δελτία Καιρού, Προγνώσεις

ΑΕΡΟΝΑΥΤΙΛΙΑ

GREEK AIRPORTS CODES

LGAT 181330Z AUTO 02005KT 280V180 //// // ////// 10/04 Q1022 RE//=

EUROPEAN AIRPORTS CODES

LFPO 181400Z VRB03KT 9999 SCT025 09/03 Q1027 NOSIG=